createdAt,value
2019-05-13T00:00:59.283Z,103407.59
2019-05-13T00:03:27.023Z,103406.64
2019-05-13T00:05:54.740Z,103400.23
2019-05-13T00:08:24.827Z,103402.98
2019-05-13T00:11:04.365Z,103400.19
2019-05-13T00:13:33.816Z,103397.88
2019-05-13T00:16:03.721Z,103400.98
2019-05-13T00:18:31.171Z,103401.62
2019-05-13T00:20:58.908Z,103406.23
2019-05-13T00:23:26.643Z,103410.54
2019-05-13T00:25:57.541Z,103412.95
2019-05-13T00:28:25.260Z,103410.40
2019-05-13T00:30:54.300Z,103409.06
2019-05-13T00:33:24.289Z,103410.14
2019-05-13T00:35:53.420Z,103415.95
2019-05-13T00:38:21.326Z,103319.04
2019-05-13T00:40:49.069Z,103419.02
2019-05-13T00:43:26.260Z,103422.25
2019-05-13T00:45:54.239Z,103420.05
2019-05-13T00:48:23.394Z,103420.56
2019-05-13T00:50:51.352Z,103425.88
2019-05-13T00:53:19.187Z,103429.34
2019-05-13T00:55:46.916Z,103358.73
2019-05-13T00:58:14.702Z,103418.69
2019-05-13T01:00:44.343Z,103415.56
2019-05-13T01:03:14.036Z,103416.48
2019-05-13T01:05:44.235Z,103421.56
2019-05-13T01:08:11.486Z,103424.45
2019-05-13T01:10:39.231Z,103417.70
2019-05-13T01:13:07.004Z,103415.29
2019-05-13T01:15:34.817Z,103418.50
2019-05-13T01:18:16.683Z,103418.39
2019-05-13T01:20:38.635Z,103422.19
2019-05-13T01:23:06.391Z,103418.16
2019-05-13T01:25:34.143Z,103418.92
2019-05-13T01:28:04.217Z,103418.81
2019-05-13T01:30:31.448Z,103420.67
2019-05-13T01:32:59.168Z,103417.33
2019-05-13T01:35:26.987Z,103422.00
2019-05-13T01:37:54.718Z,103414.94
2019-05-13T01:40:23.910Z,103414.73
2019-05-13T01:42:54.020Z,103411.88
2019-05-13T01:45:21.340Z,103415.62
2019-05-13T01:47:49.067Z,103413.37
2019-05-13T01:50:16.787Z,103409.37
2019-05-13T01:53:05.483Z,103410.46
2019-05-13T01:56:23.527Z,103155.34
2019-05-13T01:59:07.816Z,103425.44
2019-05-13T02:01:35.531Z,103417.46
2019-05-13T02:04:03.950Z,103419.28
2019-05-13T02:06:33.592Z,103419.69
2019-05-13T02:09:03.830Z,103424.95
2019-05-13T02:11:31.053Z,103428.14
2019-05-13T02:13:58.864Z,103435.39
2019-05-13T02:16:26.599Z,103429.66
2019-05-13T02:18:54.360Z,103432.20
2019-05-13T02:21:24.199Z,103437.75
2019-05-13T02:23:53.644Z,103440.64
2019-05-13T02:26:21.058Z,103435.84
2019-05-13T02:28:48.891Z,103435.54
2019-05-13T02:31:37.064Z,103433.84
2019-05-13T02:33:48.998Z,103440.80
2019-05-13T02:36:16.780Z,103437.11
2019-05-13T02:38:44.507Z,103440.20
2019-05-13T02:44:44.056Z,103448.24
2019-05-13T02:47:12.495Z,103451.98
2019-05-13T02:49:53.266Z,103444.80
2019-05-13T02:52:33.728Z,103449.98
2019-05-13T02:55:12.362Z,103453.00
2019-05-13T02:58:32.937Z,103454.39
2019-05-13T03:01:12.596Z,103454.49
2019-05-13T03:03:36.223Z,103460.24
2019-05-13T03:06:23.346Z,103462.80
2019-05-13T03:08:54.178Z,103469.81
2019-05-13T03:11:22.783Z,103465.97
2019-05-13T03:13:52.868Z,103467.81
2019-05-13T03:16:35.970Z,103472.87
2019-05-13T03:19:03.736Z,103469.32
2019-05-13T03:21:32.602Z,103475.30
2019-05-13T03:24:03.575Z,103464.02
2019-05-13T03:26:36.610Z,103463.48
2019-05-13T03:29:04.350Z,103472.59
2019-05-13T03:31:36.139Z,103476.91
2019-05-13T03:34:06.767Z,103474.09
2019-05-13T03:36:36.195Z,103476.98
2019-05-13T03:39:09.759Z,103478.36
2019-05-13T03:41:33.061Z,103478.86
2019-05-13T03:44:02.553Z,103485.83
2019-05-13T03:46:33.401Z,103488.70
2019-05-13T03:49:02.470Z,103485.72
2019-05-13T03:51:32.489Z,103480.42
2019-05-13T03:54:02.771Z,103488.39
2019-05-13T03:56:37.260Z,103486.91
2019-05-13T03:59:04.990Z,103488.71
2019-05-13T04:01:32.879Z,103488.31
2019-05-13T04:04:03.226Z,103488.52
2019-05-13T04:06:32.342Z,103491.16
2019-05-13T04:09:17.115Z,103487.94
2019-05-13T04:11:29.055Z,103489.33
2019-05-13T04:13:56.833Z,103492.52
2019-05-13T04:16:24.658Z,103497.84
2019-05-13T04:22:07.381Z,103494.39
2019-05-13T04:24:35.739Z,103492.07
2019-05-13T04:27:03.786Z,103496.11
2019-05-13T04:29:33.070Z,103499.99
2019-05-13T04:32:02.314Z,103495.38
2019-05-13T04:34:33.833Z,103498.71
2019-05-13T04:37:02.425Z,103498.38
2019-05-13T04:39:41.847Z,103494.80
2019-05-13T04:42:02.280Z,103506.25
2019-05-13T04:44:42.568Z,103502.48
2019-05-13T04:47:12.477Z,103500.23
2019-05-13T04:49:38.649Z,103505.36
2019-05-13T04:52:06.392Z,103505.13
2019-05-13T04:54:34.112Z,103503.07
2019-05-13T04:57:02.939Z,103503.89
2019-05-13T04:59:34.473Z,103505.05
2019-05-13T05:02:13.288Z,103514.59
2019-05-13T05:05:22.586Z,103509.34
2019-05-13T05:11:22.473Z,103514.28
2019-05-13T05:13:56.690Z,103513.18
2019-05-13T05:16:40.964Z,103517.45
2019-05-13T05:19:25.013Z,103522.86
2019-05-13T05:21:56.590Z,103519.70
2019-05-13T05:24:45.615Z,103518.27
2019-05-13T05:27:35.479Z,103516.91
2019-05-13T05:30:14.186Z,103519.73
2019-05-13T05:33:02.077Z,103526.03
2019-05-13T05:35:37.176Z,103516.66
2019-05-13T05:38:18.227Z,103515.74
2019-05-13T05:40:46.075Z,103507.95
2019-05-13T05:43:31.532Z,103500.98
2019-05-13T05:46:01.641Z,103524.91
2019-05-13T05:48:31.469Z,103517.78
2019-05-13T05:51:01.994Z,103519.16
2019-05-13T05:53:28.646Z,103527.52
2019-05-13T05:55:56.402Z,103522.27
2019-05-13T05:58:24.300Z,103520.59
2019-05-13T06:00:54.421Z,103536.66
2019-05-13T06:03:22.655Z,103533.58
2019-05-13T06:05:51.345Z,103522.03
2019-05-13T06:08:21.623Z,103533.34
2019-05-13T06:11:02.240Z,103527.39
2019-05-13T06:13:31.622Z,103531.34
2019-05-13T06:16:01.714Z,103521.53
2019-05-13T06:18:29.474Z,103526.16
2019-05-13T06:20:57.471Z,103531.33
2019-05-13T06:23:25.254Z,103518.98
2019-05-13T06:25:53.039Z,103522.40
2019-05-13T06:28:21.721Z,103523.42
2019-05-13T06:30:51.928Z,103526.77
2019-05-13T06:33:21.154Z,103527.95
2019-05-13T06:35:52.147Z,103531.06
2019-05-13T06:38:22.326Z,103532.42
2019-05-13T06:41:02.622Z,103535.55
2019-05-13T06:43:27.398Z,103517.45
2019-05-13T06:45:55.158Z,103531.92
2019-05-13T06:48:23.203Z,103536.29
2019-05-13T06:50:52.133Z,103539.08
2019-05-13T06:53:21.740Z,103530.42
2019-05-13T06:55:52.278Z,103539.69
2019-05-13T06:58:22.283Z,103534.09
2019-05-13T07:00:51.602Z,103534.48
2019-05-13T07:03:22.370Z,103531.83
2019-05-13T07:05:52.290Z,103536.55
2019-05-13T07:08:23.497Z,103540.45
2019-05-13T07:10:51.811Z,103549.94
2019-05-13T07:13:21.834Z,103541.05
2019-05-13T07:15:52.067Z,103532.84
2019-05-13T07:18:21.746Z,103536.98
2019-05-13T07:20:48.937Z,103545.37
2019-05-13T07:23:19.466Z,103552.55
2019-05-13T07:25:47.396Z,103541.17
2019-05-13T07:28:15.369Z,103541.44
2019-05-13T07:30:43.477Z,103551.70
2019-05-13T07:33:12.777Z,103546.42
2019-05-13T07:35:44.517Z,103546.80
2019-05-13T07:38:11.706Z,103532.89
2019-05-13T07:41:01.794Z,103535.69
2019-05-13T07:43:32.056Z,103540.41
2019-05-13T07:46:01.903Z,103543.09
2019-05-13T07:48:31.595Z,103542.05
2019-05-13T07:51:00.586Z,103551.59
2019-05-13T07:53:27.883Z,103555.16
2019-05-13T07:55:55.594Z,103559.08
2019-05-13T07:58:23.568Z,103549.58
2019-05-13T08:00:52.086Z,103550.78
2019-05-13T08:03:21.379Z,103553.30
2019-05-13T08:05:54.738Z,103556.58
2019-05-13T08:08:23.805Z,103562.30
2019-05-13T08:10:52.092Z,103555.19
2019-05-13T08:13:22.258Z,103559.02
2019-05-13T08:15:54.347Z,103560.34
2019-05-13T08:18:22.221Z,103559.23
2019-05-13T08:20:52.505Z,103555.58
2019-05-13T08:23:21.674Z,103544.58
2019-05-13T08:25:51.330Z,103549.95
2019-05-13T08:28:18.408Z,103540.81
2019-05-13T08:30:46.233Z,103543.85
2019-05-13T08:33:13.977Z,103543.98
2019-05-13T08:35:41.852Z,103554.09
2019-05-13T08:38:12.087Z,103549.03
2019-05-13T08:40:42.768Z,103536.31
2019-05-13T08:43:12.080Z,103549.92
2019-05-13T08:45:42.064Z,103541.44
2019-05-13T08:48:12.462Z,103547.73
2019-05-13T08:50:41.641Z,103545.20
2019-05-13T08:53:08.793Z,103545.86
2019-05-13T08:55:36.511Z,103545.78
2019-05-13T08:58:04.261Z,103477.47
2019-05-13T09:00:48.191Z,103553.22
2019-05-13T09:03:16.108Z,103549.17
2019-05-13T09:05:52.126Z,103548.97
2019-05-13T09:08:16.739Z,103534.63
2019-05-13T09:10:44.551Z,103531.72
2019-05-13T09:13:12.368Z,103547.69
2019-05-13T09:15:42.198Z,103548.16
2019-05-13T09:18:11.417Z,103544.73
2019-05-13T09:20:41.433Z,103544.03
2019-05-13T09:23:08.423Z,103539.47
2019-05-13T09:25:36.145Z,103549.72
2019-05-13T09:28:03.874Z,103543.02
2019-05-13T09:30:31.707Z,103547.92
2019-05-13T09:33:01.818Z,103542.68
2019-05-13T09:35:28.891Z,103535.70
2019-05-13T09:38:06.841Z,103540.16
2019-05-13T09:40:34.615Z,103554.34
2019-05-13T09:43:02.617Z,103548.94
2019-05-13T09:45:32.186Z,103548.78
2019-05-13T09:48:01.584Z,103555.80
2019-05-13T09:50:35.767Z,103539.41
2019-05-13T09:52:59.082Z,103542.66
2019-05-13T09:58:33.467Z,103539.94
2019-05-13T10:01:01.211Z,103536.59
2019-05-13T10:03:29.620Z,103530.45
2019-05-13T10:05:58.490Z,103525.64
2019-05-13T10:08:26.222Z,103529.28
2019-05-13T10:10:54.072Z,103541.13
2019-05-13T10:13:23.204Z,103530.88
2019-05-13T10:15:51.399Z,103527.45
2019-05-13T10:18:21.623Z,103527.69
2019-05-13T10:20:52.261Z,103537.27
2019-05-13T10:23:22.028Z,103519.86
2019-05-13T10:25:52.151Z,103524.80
2019-05-13T10:28:21.917Z,103527.33
2019-05-13T10:30:53.045Z,103523.34
2019-05-13T10:33:22.143Z,103517.97
2019-05-13T10:35:52.445Z,103517.64
2019-05-13T10:38:22.733Z,103509.34
2019-05-13T10:40:51.920Z,103514.57
2019-05-13T10:43:31.013Z,103523.59
2019-05-13T10:45:52.278Z,103519.31
2019-05-13T10:48:21.552Z,103518.70
2019-05-13T10:50:48.570Z,103518.31
2019-05-13T10:53:16.457Z,103524.27
2019-05-13T10:55:44.442Z,103511.78
2019-05-13T10:58:12.488Z,103512.23
2019-05-13T11:00:51.650Z,103513.08
2019-05-13T11:03:23.303Z,103511.25
2019-05-13T11:05:52.886Z,103509.22
2019-05-13T11:08:22.171Z,103500.40
2019-05-13T11:10:53.129Z,103508.80
2019-05-13T11:13:23.207Z,103511.37
2019-05-13T11:15:57.498Z,103502.07
2019-05-13T11:18:21.913Z,103511.27
2019-05-13T11:20:49.075Z,103502.13
2019-05-13T11:23:16.843Z,103511.52
2019-05-13T11:25:44.631Z,103510.02
2019-05-13T11:28:12.445Z,103499.17
2019-05-13T11:30:44.128Z,103502.62
2019-05-13T11:33:14.232Z,103494.77
2019-05-13T11:35:43.143Z,103500.90
2019-05-13T11:38:12.165Z,103498.24
2019-05-13T11:40:40.104Z,103502.45
2019-05-13T11:43:07.930Z,103498.42
2019-05-13T11:45:35.786Z,103502.02
2019-05-13T11:48:03.794Z,103490.36
2019-05-13T11:50:32.943Z,103489.46
2019-05-13T11:53:06.020Z,103487.73
2019-05-13T11:55:31.259Z,103483.28
2019-05-13T11:58:02.703Z,103485.32
2019-05-13T12:00:45.164Z,103476.83
2019-05-13T12:03:13.182Z,103477.56
2019-05-13T12:05:42.139Z,103474.83
2019-05-13T12:08:12.692Z,103471.00
2019-05-13T12:10:43.714Z,103470.84
2019-05-13T12:13:11.863Z,103473.73
2019-05-13T12:15:46.091Z,103475.27
2019-05-13T12:18:08.211Z,103477.70
2019-05-13T12:20:35.987Z,103475.44
2019-05-13T12:23:03.803Z,103475.73
2019-05-13T12:25:33.533Z,103457.39
2019-05-13T12:28:03.331Z,103464.42
2019-05-13T12:30:33.850Z,103464.42
2019-05-13T12:35:47.931Z,103461.81
2019-05-13T12:38:15.674Z,103448.89
2019-05-13T12:40:43.789Z,103439.70
2019-05-13T12:43:13.304Z,103432.17
2019-05-13T12:45:43.075Z,103449.63
2019-05-13T12:48:14.040Z,103435.70
2019-05-13T12:50:43.139Z,103439.19
2019-05-13T12:53:12.763Z,103369.73
2019-05-13T12:55:40.811Z,103442.86
2019-05-13T12:58:08.531Z,103430.31
2019-05-13T13:00:43.395Z,103429.95
2019-05-13T13:03:13.388Z,103423.26
2019-05-13T13:05:43.301Z,103416.75
2019-05-13T13:08:19.273Z,103415.75
2019-05-13T13:10:41.745Z,103413.67
2019-05-13T13:13:09.687Z,103414.69
2019-05-13T13:15:42.239Z,103416.47
2019-05-13T13:18:07.196Z,103408.46
2019-05-13T13:20:41.595Z,103398.48
2019-05-13T13:23:04.839Z,103408.33
2019-05-13T13:25:33.898Z,103416.91
2019-05-13T13:28:10.528Z,103409.74
2019-05-13T13:30:35.022Z,103390.10
2019-05-13T13:33:03.067Z,103391.28
2019-05-13T13:35:33.836Z,103388.89
2019-05-13T13:38:04.122Z,103388.34
2019-05-13T13:40:34.560Z,103392.34
2019-05-13T13:43:04.080Z,103383.69
2019-05-13T13:45:32.687Z,103377.96
2019-05-13T13:48:03.538Z,103400.08
2019-05-13T13:50:28.167Z,103389.53
2019-05-13T13:52:55.867Z,103388.59
2019-05-13T13:55:25.913Z,103387.34
2019-05-13T13:57:56.796Z,103378.37
2019-05-13T14:00:34.672Z,103370.94
2019-05-13T14:03:06.049Z,103383.58
2019-05-13T14:05:26.362Z,103383.21
2019-05-13T14:07:54.472Z,103380.08
2019-05-13T14:10:22.382Z,103376.62
2019-05-13T14:12:52.532Z,103366.91
2019-05-13T14:15:21.581Z,103374.52
2019-05-13T14:17:51.692Z,103371.35
2019-05-13T14:20:21.811Z,103378.05
2019-05-13T14:22:48.809Z,103383.38
2019-05-13T14:25:16.635Z,103373.58
2019-05-13T14:27:44.339Z,103364.72
2019-05-13T14:30:12.156Z,103372.37
2019-05-13T14:32:41.765Z,103364.35
2019-05-13T14:35:12.009Z,103369.41
2019-05-13T14:37:39.408Z,103364.79
2019-05-13T14:40:07.840Z,103355.94
2019-05-13T14:42:35.727Z,103347.89
2019-05-13T14:45:04.339Z,103352.39
2019-05-13T14:47:32.286Z,103355.13
2019-05-13T14:50:01.922Z,103352.48
2019-05-13T14:52:32.225Z,103351.59
2019-05-13T14:55:02.016Z,103348.52
2019-05-13T14:57:29.184Z,103350.66
2019-05-13T14:59:57.500Z,103352.58
2019-05-13T15:02:25.692Z,103352.65
2019-05-13T15:04:53.736Z,103345.84
2019-05-13T15:07:21.795Z,103345.95
2019-05-13T15:09:51.554Z,103346.41
2019-05-13T15:12:21.679Z,103336.48
2019-05-13T15:14:57.101Z,103339.23
2019-05-13T15:17:25.317Z,103340.17
2019-05-13T15:19:53.224Z,103335.68
2019-05-13T15:22:22.670Z,103334.38
2019-05-13T15:24:51.856Z,103338.41
2019-05-13T15:27:22.089Z,103340.64
2019-05-13T15:29:51.567Z,103333.48
2019-05-13T15:32:19.522Z,103341.55
2019-05-13T15:34:48.459Z,103339.86
2019-05-13T15:37:16.328Z,103334.03
2019-05-13T15:39:44.181Z,103342.59
2019-05-13T15:42:12.111Z,103347.12
2019-05-13T15:44:40.040Z,103343.04
2019-05-13T15:47:20.252Z,103338.12
2019-05-13T15:49:37.526Z,103344.40
2019-05-13T15:52:05.442Z,103340.81
2019-05-13T15:54:33.222Z,103328.23
2019-05-13T15:57:02.346Z,103330.93
2019-05-13T15:59:30.414Z,103328.70
2019-05-13T16:01:58.220Z,103335.45
2019-05-13T16:04:26.131Z,103330.95
2019-05-13T16:06:54.020Z,103339.03
2019-05-13T16:09:22.135Z,103326.45
2019-05-13T16:11:52.185Z,103330.05
2019-05-13T16:14:21.869Z,103330.98
2019-05-13T16:16:49.302Z,103331.86
2019-05-13T16:19:17.193Z,103325.55
2019-05-13T16:21:55.179Z,103333.66
2019-05-13T16:24:23.698Z,103188.84
2019-05-13T16:26:52.305Z,103333.65
2019-05-13T16:29:22.405Z,103336.79
2019-05-13T16:31:51.496Z,103324.19
2019-05-13T16:34:22.317Z,103341.73
2019-05-13T16:36:52.998Z,103331.81
2019-05-13T16:39:21.394Z,103330.91
2019-05-13T16:41:51.526Z,103333.16
2019-05-13T16:44:43.046Z,103335.42
2019-05-13T16:47:09.174Z,103329.47
2019-05-13T16:49:37.012Z,103334.02
2019-05-13T16:52:04.946Z,103333.11
2019-05-13T17:04:06.545Z,103335.42
2019-05-13T17:06:36.561Z,103336.35
2019-05-13T17:09:05.758Z,103334.49
2019-05-13T17:11:33.918Z,103335.37
2019-05-13T17:14:05.880Z,103325.50
2019-05-13T17:16:33.974Z,103334.95
2019-05-13T17:19:02.193Z,103340.34
2019-05-13T17:21:31.615Z,103341.30
2019-05-13T17:27:22.441Z,103342.66
2019-05-13T17:29:51.727Z,103344.44
2019-05-13T17:32:22.058Z,103341.76
2019-05-13T17:34:51.556Z,103335.94
2019-05-13T17:37:23.769Z,103340.86
2019-05-13T17:39:51.820Z,103342.19
2019-05-13T17:45:31.164Z,103348.94
2019-05-13T17:48:00.976Z,103346.70
2019-05-13T17:51:06.241Z,103348.06
2019-05-13T17:53:35.462Z,103349.85
2019-05-13T17:56:03.405Z,103339.98
2019-05-13T17:58:35.345Z,103342.65
2019-05-13T18:01:03.396Z,103341.31
2019-05-13T18:03:32.037Z,103345.33
2019-05-13T18:06:06.863Z,103342.66
2019-05-13T18:08:35.164Z,103345.80
2019-05-13T18:11:22.367Z,103344.45
2019-05-13T18:13:51.910Z,103342.22
2019-05-13T18:16:21.752Z,103341.78
2019-05-13T18:18:51.915Z,103353.47
2019-05-13T18:21:22.091Z,103348.93
2019-05-13T18:23:51.991Z,103344.44
2019-05-13T18:26:21.457Z,103351.69
2019-05-13T18:28:48.716Z,103353.45
2019-05-13T18:31:16.554Z,103359.31
2019-05-13T18:33:44.339Z,103361.13
2019-05-13T18:36:22.266Z,103355.72
2019-05-13T18:38:50.420Z,103355.73
2019-05-13T18:41:18.155Z,103353.45
2019-05-13T18:43:46.039Z,103354.36
2019-05-13T18:46:13.779Z,103352.58
2019-05-13T18:48:57.793Z,103353.91
2019-05-13T18:51:11.850Z,103354.39
2019-05-13T18:53:41.474Z,103360.22
2019-05-13T18:56:09.135Z,103362.88
2019-05-13T18:58:36.859Z,103361.09
2019-05-13T19:01:32.129Z,103367.35
2019-05-13T19:04:01.939Z,103369.39
2019-05-13T19:06:31.617Z,103367.73
2019-05-13T19:09:02.076Z,103371.19
2019-05-13T19:11:31.721Z,103376.62
2019-05-13T19:13:59.117Z,103387.18
2019-05-13T19:16:27.140Z,103385.73
2019-05-13T19:18:54.955Z,103385.91
2019-05-13T19:21:22.963Z,103386.33
2019-05-13T19:23:51.319Z,103388.09
2019-05-13T19:26:21.768Z,103396.13
2019-05-13T19:28:51.629Z,103395.38
2019-05-13T19:31:51.413Z,103396.69
2019-05-13T19:34:21.429Z,103401.39
2019-05-13T19:36:48.736Z,103406.44
2019-05-13T19:39:16.573Z,103402.63
2019-05-13T19:41:44.687Z,103410.30
2019-05-13T19:44:12.428Z,103406.89
2019-05-13T19:46:42.163Z,103404.62
2019-05-13T19:49:12.106Z,103412.66
2019-05-13T19:51:52.074Z,103408.66
2019-05-13T19:54:15.393Z,103407.25
2019-05-13T19:56:43.773Z,103406.18
2019-05-13T19:59:12.511Z,103408.47
2019-05-13T20:01:42.317Z,103411.35
2019-05-13T20:04:10.010Z,103408.22
2019-05-13T20:06:37.923Z,103418.13
2019-05-13T20:09:06.517Z,103418.70
2019-05-13T20:11:34.841Z,103416.08
2019-05-13T20:14:02.631Z,103417.96
2019-05-13T20:16:34.621Z,103418.95
2019-05-13T20:19:02.486Z,103409.78
2019-05-13T20:21:31.987Z,103415.88
2019-05-13T20:24:00.227Z,103412.25
2019-05-13T20:26:29.211Z,103415.50
2019-05-13T20:28:57.234Z,103411.61
2019-05-13T20:31:25.128Z,103409.83
2019-05-13T20:33:53.150Z,103407.83
2019-05-13T20:36:22.371Z,103417.68
2019-05-13T20:38:51.560Z,103408.42
2019-05-13T20:41:22.358Z,103414.14
2019-05-13T20:43:52.057Z,103415.60
2019-05-13T20:46:19.845Z,103412.87
2019-05-13T20:48:51.950Z,103420.12
2019-05-13T20:51:21.824Z,103421.20
2019-05-13T20:53:51.636Z,103432.86
2019-05-13T20:56:21.209Z,103423.73
2019-05-13T20:58:51.341Z,103420.34
2019-05-13T21:01:18.668Z,103420.17
2019-05-13T21:03:46.697Z,103422.31
2019-05-13T21:06:16.587Z,103421.78
2019-05-13T21:15:04.311Z,103413.81
2019-05-13T21:17:32.064Z,103411.72
2019-05-13T21:20:04.280Z,103406.88
2019-05-13T21:22:31.628Z,103350.20
2019-05-13T21:24:58.747Z,103407.33
2019-05-13T21:27:27.453Z,103405.42
2019-05-13T21:29:55.294Z,103410.58
2019-05-13T21:32:24.401Z,103411.86
2019-05-13T21:35:01.637Z,103408.06
2019-05-13T21:37:29.061Z,103413.78
2019-05-13T21:39:56.834Z,103407.33
2019-05-13T21:42:24.655Z,103416.53
2019-05-13T21:44:55.189Z,103405.53
2019-05-13T21:47:23.058Z,103414.28
2019-05-13T21:49:51.520Z,103410.98
2019-05-13T21:52:23.635Z,103411.47
2019-05-13T21:54:51.481Z,103411.60
2019-05-13T21:57:18.786Z,103402.48
2019-05-13T21:59:46.514Z,103400.53
2019-05-13T22:02:14.332Z,103401.40
2019-05-13T22:04:42.038Z,103401.58
2019-05-13T22:07:11.947Z,103403.94
2019-05-13T22:09:51.359Z,103407.06
2019-05-13T22:12:21.534Z,103399.17
2019-05-13T22:14:48.882Z,103400.51
2019-05-13T22:17:16.744Z,103399.14
2019-05-13T22:19:45.609Z,103403.18
2019-05-13T22:25:23.112Z,103164.35
2019-05-13T22:27:51.854Z,103393.82
2019-05-13T22:30:20.470Z,103393.23
2019-05-13T22:32:48.256Z,103396.11
2019-05-13T22:35:16.237Z,103396.13
2019-05-13T22:37:44.368Z,103395.34
2019-05-13T22:40:12.215Z,103395.55
2019-05-13T22:42:41.557Z,103393.79
2019-05-13T22:45:11.756Z,103395.95
2019-05-13T22:47:41.530Z,103394.48
2019-05-13T22:50:11.481Z,103395.02
2019-05-13T22:52:41.660Z,103389.66
2019-05-13T22:55:11.430Z,103399.33
2019-05-13T22:57:51.079Z,103394.58
2019-05-13T23:00:22.153Z,103394.83
2019-05-13T23:02:49.130Z,103395.11
2019-05-13T23:05:16.831Z,103395.23
2019-05-13T23:07:44.819Z,103385.75
2019-05-13T23:10:14.107Z,103384.31
2019-05-13T23:12:42.162Z,103391.73
2019-05-13T23:15:11.973Z,103389.84
2019-05-13T23:17:41.456Z,103386.11
2019-05-13T23:20:08.987Z,103394.17
2019-05-13T23:22:36.759Z,103397.07
2019-05-13T23:25:05.088Z,103389.59
2019-05-13T23:27:32.882Z,103383.44
2019-05-13T23:30:08.664Z,103388.50
2019-05-13T23:32:36.411Z,103395.67
2019-05-13T23:35:04.173Z,103394.55
2019-05-13T23:37:32.279Z,103389.89
2019-05-13T23:40:01.439Z,103391.87
2019-05-13T23:42:31.799Z,103393.39
2019-05-13T23:44:58.779Z,103399.14
2019-05-13T23:47:26.570Z,103387.72
2019-05-13T23:49:54.286Z,103388.45
2019-05-13T23:52:22.276Z,103391.66
2019-05-13T23:54:51.631Z,103386.67
2019-05-13T23:57:22.027Z,103391.65
2019-05-13T23:59:51.104Z,103389.77
